Time,TemperatureF,DewpointF,PressureIn,WindDirection,WindDirectionDegrees,WindSpeedMPH,WindSpeedGustMPH,Humidity,HourlyPrecipIn,Conditions,Clouds,dailyrainin,SoftwareType,DateUTC
2013-07-15 00:11:00,72.6,63.0,30.01,ENE,67,12.0,-999.0,73,-99.99,,,0.00,weatherlink.com 1.10,2013-07-15 05:11:00,
2013-07-15 00:26:00,72.5,64.0,30.02,ENE,73,19.0,-999.0,74,-99.99,,,0.00,weatherlink.com 1.10,2013-07-15 05:26:00,
2013-07-15 00:41:00,72.1,63.0,30.01,ENE,74,12.0,-999.0,74,-99.99,,,0.00,weatherlink.com 1.10,2013-07-15 05:41:00,
2013-07-15 00:56:00,71.7,63.0,30.01,East,79,18.0,-999.0,74,-99.99,,,0.00,weatherlink.com 1.10,2013-07-15 05:56:00,
2013-07-15 01:11:00,71.3,63.0,30.01,East,83,19.0,-999.0,74,-99.99,,,0.00,weatherlink.com 1.10,2013-07-15 06:11:00,
2013-07-15 01:26:00,70.8,62.0,30.01,East,84,10.0,-999.0,74,-99.99,,,0.00,weatherlink.com 1.10,2013-07-15 06:26:00,
2013-07-15 01:41:00,70.6,62.0,30.01,East,83,10.0,-999.0,73,-99.99,,,0.00,weatherlink.com 1.10,2013-07-15 06:41:00,
2013-07-15 01:56:00,70.1,61.0,30.01,East,82,10.0,-999.0,73,-99.99,,,0.00,weatherlink.com 1.10,2013-07-15 06:56:00,
2013-07-15 02:26:00,69.4,60.0,30.00,East,88,7.0,-999.0,71,-99.99,,,0.00,weatherlink.com 1.10,2013-07-15 07:26:00,
2013-07-15 02:41:00,69.2,59.0,30.01,East,84,13.0,-999.0,71,-99.99,,,0.00,weatherlink.com 1.10,2013-07-15 07:41:00,
2013-07-15 02:56:00,69.0,59.0,30.01,ENE,78,7.0,-999.0,70,-99.99,,,0.00,weatherlink.com 1.10,2013-07-15 07:56:00,
2013-07-15 03:11:00,68.9,59.0,30.01,ENE,78,13.0,-999.0,70,-99.99,,,0.00,weatherlink.com 1.10,2013-07-15 08:11:00,
2013-07-15 03:26:00,68.7,59.0,30.01,ENE,78,11.0,-999.0,70,-99.99,,,0.00,weatherlink.com 1.10,2013-07-15 08:26:00,
2013-07-15 03:41:00,68.5,58.0,30.01,East,88,5.0,-999.0,70,-99.99,,,0.00,weatherlink.com 1.10,2013-07-15 08:41:00,
2013-07-15 03:56:00,68.4,58.0,30.01,ENE,77,7.0,-999.0,69,-99.99,,,0.00,weatherlink.com 1.10,2013-07-15 08:56:00,
2013-07-15 04:11:00,68.4,58.0,30.02,East,98,6.0,-999.0,69,-99.99,,,0.00,weatherlink.com 1.10,2013-07-15 09:11:00,
2013-07-15 04:26:00,68.3,58.0,30.02,East,80,11.0,-999.0,69,-99.99,,,0.00,weatherlink.com 1.10,2013-07-15 09:26:00,
2013-07-15 04:41:00,68.1,58.0,30.02,East,85,10.0,-999.0,69,-99.99,,,0.00,weatherlink.com 1.10,2013-07-15 09:41:00,
2013-07-15 04:56:00,68.0,57.0,30.02,East,86,10.0,-999.0,69,-99.99,,,0.00,weatherlink.com 1.10,2013-07-15 09:56:00,
2013-07-15 05:11:00,67.7,58.0,30.03,East,86,13.0,-999.0,70,-99.99,,,0.00,weatherlink.com 1.10,2013-07-15 10:11:00,
2013-07-15 05:26:00,67.5,57.0,30.03,ENE,77,11.0,-999.0,70,-99.99,,,0.00,weatherlink.com 1.10,2013-07-15 10:26:00,
2013-07-15 05:41:00,67.4,57.0,30.04,East,83,11.0,-999.0,70,-99.99,,,0.00,weatherlink.com 1.10,2013-07-15 10:41:00,
2013-07-15 05:56:00,67.2,57.0,30.05,East,79,4.0,-999.0,70,-99.99,,,0.00,weatherlink.com 1.10,2013-07-15 10:56:00,
2013-07-15 06:11:00,67.1,57.0,30.07,East,80,5.0,-999.0,71,-99.99,,,0.00,weatherlink.com 1.10,2013-07-15 11:11:00,
2013-07-15 06:26:00,67.0,57.0,30.07,ENE,78,0.0,-999.0,71,-99.99,,,0.00,weatherlink.com 1.10,2013-07-15 11:26:00,
2013-07-15 06:41:00,67.0,58.0,30.07,East,85,4.0,-999.0,72,-99.99,,,0.00,weatherlink.com 1.10,2013-07-15 11:41:00,
2013-07-15 06:56:00,67.0,58.0,30.07,ENE,78,7.0,-999.0,72,-99.99,,,0.00,weatherlink.com 1.10,2013-07-15 11:56:00,
2013-07-15 07:11:00,67.1,58.0,30.08,East,82,14.0,-999.0,72,-99.99,,,0.00,weatherlink.com 1.10,2013-07-15 12:11:00,
2013-07-15 07:26:00,67.3,58.0,30.09,East,84,3.0,-999.0,73,-99.99,,,0.00,weatherlink.com 1.10,2013-07-15 12:26:00,
2013-07-15 07:41:00,67.3,58.0,30.09,East,84,10.0,-999.0,73,-99.99,,,0.00,weatherlink.com 1.10,2013-07-15 12:41:00,
2013-07-15 07:56:00,67.5,59.0,30.10,ENE,71,7.0,-999.0,73,-99.99,,,0.00,weatherlink.com 1.10,2013-07-15 12:56:00,
2013-07-15 08:11:00,67.7,59.0,30.10,East,82,10.0,-999.0,73,-99.99,,,0.00,weatherlink.com 1.10,2013-07-15 13:11:00,
2013-07-15 08:26:00,68.1,59.0,30.11,East,82,10.0,-999.0,73,-99.99,,,0.00,weatherlink.com 1.10,2013-07-15 13:26:00,
2013-07-15 08:41:00,68.6,59.0,30.11,ENE,78,0.0,-999.0,72,-99.99,,,0.00,weatherlink.com 1.10,2013-07-15 13:41:00,
2013-07-15 08:56:00,69.1,59.0,30.12,East,90,8.0,-999.0,70,-99.99,,,0.00,weatherlink.com 1.10,2013-07-15 13:56:00,
2013-07-15 09:11:00,69.2,59.0,30.13,East,92,5.0,-999.0,69,-99.99,,,0.00,weatherlink.com 1.10,2013-07-15 14:11:00,
2013-07-15 09:26:00,70.1,59.0,30.12,East,89,6.0,-999.0,69,-99.99,,,0.00,weatherlink.com 1.10,2013-07-15 14:26:00,
2013-07-15 09:41:00,72.2,63.0,30.12,East,83,0.0,-999.0,72,-99.99,,,0.00,weatherlink.com 1.10,2013-07-15 14:41:00,
2013-07-15 09:56:00,73.3,65.0,30.12,East,101,8.0,-999.0,74,-99.99,,,0.00,weatherlink.com 1.10,2013-07-15 14:56:00,
2013-07-15 11:25:00,77.0,68.0,30.12,East,80,10.0,-999.0,73,-99.99,,,0.00,weatherlink.com 1.10,2013-07-15 16:25:00,
2013-07-15 11:41:00,76.8,68.0,30.12,East,82,2.0,-999.0,73,-99.99,,,0.00,weatherlink.com 1.10,2013-07-15 16:41:00,
2013-07-15 11:56:00,77.5,68.0,30.11,East,82,3.0,-999.0,72,-99.99,,,0.00,weatherlink.com 1.10,2013-07-15 16:56:00,
2013-07-15 12:26:00,78.1,68.0,30.10,ENE,74,6.0,-999.0,71,-99.99,,,0.00,weatherlink.com 1.10,2013-07-15 17:26:00,
2013-07-15 12:41:00,78.0,68.0,30.10,East,86,0.0,-999.0,72,-99.99,,,0.00,weatherlink.com 1.10,2013-07-15 17:41:00,
2013-07-15 12:56:00,78.8,68.0,30.10,ENE,78,11.0,-999.0,70,-99.99,,,0.00,weatherlink.com 1.10,2013-07-15 17:56:00,
2013-07-15 13:11:00,79.7,68.0,30.10,East,80,0.0,-999.0,68,-99.99,,,0.00,weatherlink.com 1.10,2013-07-15 18:11:00,
2013-07-15 13:26:00,80.9,69.0,30.09,East,85,0.0,-999.0,67,-99.99,,,0.00,weatherlink.com 1.10,2013-07-15 18:26:00,
2013-07-15 13:41:00,80.2,68.0,30.09,ENE,70,4.0,-999.0,66,-99.99,,,0.00,weatherlink.com 1.10,2013-07-15 18:41:00,
2013-07-15 13:56:00,81.4,69.0,30.08,ENE,74,6.0,-999.0,65,-99.99,,,0.00,weatherlink.com 1.10,2013-07-15 18:56:00,
2013-07-15 14:11:00,81.2,68.0,30.08,East,80,12.0,-999.0,65,-99.99,,,0.00,weatherlink.com 1.10,2013-07-15 19:11:00,
2013-07-15 14:26:00,81.1,68.0,30.08,ESE,107,7.0,-999.0,64,-99.99,,,0.00,weatherlink.com 1.10,2013-07-15 19:26:00,
2013-07-15 14:41:00,81.3,68.0,30.07,ENE,74,7.0,-999.0,64,-99.99,,,0.00,weatherlink.com 1.10,2013-07-15 19:41:00,
2013-07-15 15:11:00,82.8,68.0,30.06,East,80,6.0,-999.0,61,-99.99,,,0.00,weatherlink.com 1.10,2013-07-15 20:11:00,
2013-07-15 15:26:00,82.5,67.0,30.05,East,85,6.0,-999.0,60,-99.99,,,0.00,weatherlink.com 1.10,2013-07-15 20:26:00,
2013-07-15 16:11:00,83.7,67.0,30.05,East,80,1.0,-999.0,57,-99.99,,,0.00,weatherlink.com 1.10,2013-07-15 21:11:00,
2013-07-15 16:26:00,82.9,67.0,30.05,ENE,78,0.0,-999.0,58,-99.99,,,0.00,weatherlink.com 1.10,2013-07-15 21:26:00,
2013-07-15 16:41:00,83.0,67.0,30.05,East,95,0.0,-999.0,59,-99.99,,,0.00,weatherlink.com 1.10,2013-07-15 21:41:00,
2013-07-15 17:11:00,82.5,67.0,30.05,ENE,77,10.0,-999.0,59,-99.99,,,0.00,weatherlink.com 1.10,2013-07-15 22:11:00,
2013-07-15 17:26:00,81.7,66.0,30.05,East,87,0.0,-999.0,60,-99.99,,,0.00,weatherlink.com 1.10,2013-07-15 22:26:00,
2013-07-15 17:41:00,82.5,67.0,30.05,ENE,70,17.0,-999.0,60,-99.99,,,0.00,weatherlink.com 1.10,2013-07-15 22:41:00,
2013-07-15 17:56:00,82.4,68.0,30.04,ENE,71,8.0,-999.0,61,-99.99,,,0.00,weatherlink.com 1.10,2013-07-15 22:56:00,
2013-07-15 18:11:00,82.1,67.0,30.04,East,80,7.0,-999.0,61,-99.99,,,0.00,weatherlink.com 1.10,2013-07-15 23:11:00,
2013-07-15 18:26:00,82.2,66.0,30.04,East,86,1.0,-999.0,59,-99.99,,,0.00,weatherlink.com 1.10,2013-07-15 23:26:00,
2013-07-15 18:41:00,81.8,67.0,30.05,East,88,0.0,-999.0,61,-99.99,,,0.00,weatherlink.com 1.10,2013-07-15 23:41:00,
2013-07-15 18:56:00,81.8,67.0,30.05,East,82,11.0,-999.0,62,-99.99,,,0.00,weatherlink.com 1.10,2013-07-15 23:56:00,
2013-07-15 19:11:00,81.6,68.0,30.06,East,84,8.0,-999.0,63,-99.99,,,0.00,weatherlink.com 1.10,2013-07-16 00:11:00,
2013-07-15 19:26:00,81.2,68.0,30.06,ENE,76,12.0,-999.0,65,-99.99,,,0.00,weatherlink.com 1.10,2013-07-16 00:26:00,
2013-07-15 19:41:00,80.8,68.0,30.07,East,87,0.0,-999.0,66,-99.99,,,0.00,weatherlink.com 1.10,2013-07-16 00:41:00,
2013-07-15 19:56:00,80.7,69.0,30.07,East,86,8.0,-999.0,67,-99.99,,,0.00,weatherlink.com 1.10,2013-07-16 00:56:00,
2013-07-15 20:11:00,80.4,69.0,30.07,East,79,0.0,-999.0,68,-99.99,,,0.00,weatherlink.com 1.10,2013-07-16 01:11:00,
2013-07-15 20:26:00,79.9,68.0,30.08,East,91,2.0,-999.0,68,-99.99,,,0.00,weatherlink.com 1.10,2013-07-16 01:26:00,
2013-07-15 20:41:00,79.6,68.0,30.08,ENE,78,6.0,-999.0,68,-99.99,,,0.00,weatherlink.com 1.10,2013-07-16 01:41:00,
2013-07-15 20:56:00,79.2,68.0,30.09,East,82,5.0,-999.0,68,-99.99,,,0.00,weatherlink.com 1.10,2013-07-16 01:56:00,
2013-07-15 21:11:00,78.8,68.0,30.09,East,92,5.0,-999.0,69,-99.99,,,0.00,weatherlink.com 1.10,2013-07-16 02:11:00,
2013-07-15 21:26:00,78.2,68.0,30.10,East,91,2.0,-999.0,71,-99.99,,,0.00,weatherlink.com 1.10,2013-07-16 02:26:00,
2013-07-15 21:56:00,77.6,68.0,30.12,ENE,70,3.0,-999.0,72,-99.99,,,0.00,weatherlink.com 1.10,2013-07-16 02:56:00,
2013-07-15 22:11:00,77.3,68.0,30.12,ESE,105,0.0,-999.0,73,-99.99,,,0.00,weatherlink.com 1.10,2013-07-16 03:11:00,
2013-07-15 22:26:00,77.1,68.0,30.13,East,98,0.0,-999.0,73,-99.99,,,0.00,weatherlink.com 1.10,2013-07-16 03:26:00,
2013-07-15 22:41:00,77.0,68.0,30.13,ESE,109,0.0,-999.0,73,-99.99,,,0.00,weatherlink.com 1.10,2013-07-16 03:41:00,
2013-07-15 22:56:00,76.6,68.0,30.13,East,88,7.0,-999.0,74,-99.99,,,0.00,weatherlink.com 1.10,2013-07-16 03:56:00,
2013-07-15 23:11:00,76.0,67.0,30.14,East,90,0.0,-999.0,74,-99.99,,,0.00,weatherlink.com 1.10,2013-07-16 04:11:00,
2013-07-15 23:26:00,75.6,67.0,30.14,East,98,8.0,-999.0,74,-99.99,,,0.00,weatherlink.com 1.10,2013-07-16 04:26:00,
2013-07-15 23:41:00,75.2,66.0,30.14,East,84,5.0,-999.0,73,-99.99,,,0.00,weatherlink.com 1.10,2013-07-16 04:41:00,
2013-07-15 23:56:00,75.0,66.0,30.14,East,88,4.0,-999.0,73,-99.99,,,0.00,weatherlink.com 1.10,2013-07-16 04:56:00,